VEILLE D'ORAGES VIOLENTS EN VIGUEUR

Rapports Métar

 

CWEW - L'assomption, Quebec, Canada
Distance de la station: SSE 46km
Mise à jour: 23/07/2018 07:00

 Vents de NE
Vent: NE 6 km/h
Température: 21°C
Point de rosée: 19°C
Humidité: 88%
2018/07/23 11:00 CWEW 231100Z AUTO 04003KT 21/19 RMK AO1 SLP202 T02080192 53007
CWHM - Varennes, Quebec, Canada
Distance de la station: SSE 58km
Mise à jour: 25/10/2016 10:00
PAS à jour

 Vents de O
Vent: O 19 km/h, Rafale: 28 km/h
Température: 4°C
Refroidissement éolien: 0°C
Point de rosée: -2°C
Humidité: 65%
2016/10/25 14:00 CWHM 251400Z AUTO 28010G15KT 04/M02 RMK AO1 PK WND 28018/1302 T00391017
 
CWBS - Lac St Pierre (a, Quebec, Canada
Distance de la station: E 60km
Mise à jour: 23/07/2018 07:00

 Vents de ENE
Vent: ENE 20 km/h
Température: 22°C
Point de rosée: 19°C
Humidité: 83%
2018/07/23 11:00 CWBS 231100Z AUTO 07011KT 22/19 RMK AO1 T02170189
CYMX - Montreal/Mirabel, Quebec, Canada
Distance de la station: SSO 62km
Mise à jour: 23/07/2018 07:00
Mist, nuageux
Mist, nuageux
 Vents de NE
Vent: NE 9 km/h
Température: 20°C
Point de rosée: 19°C
Humidité: 94%
Baromètre: 1020 hPa
Résumé: Mist
Nuages: nuageux
Visibilité: 10 km
Détail des nuages: partiellement nuageux 122 m
partiellement nuageux 1829 m
nuageux 3962 m
nuageux 7620 m
2018/07/23 11:00 CYMX 231100Z 04005KT 010V070 6SM BR SCT004 SCT060 BKN130 BKN250 20/19 A3012 RMK SF3SC1AC1CI2 SLP200 DENSITY ALT 700FT
 
CWJT - St Jovite (autob, Quebec, Canada
Distance de la station: OSO 64km
Mise à jour: 23/07/2018 07:00

 Vents de OSO
Vent: OSO 2 km/h
Température: 20°C
Point de rosée: 19°C
Humidité: 94%
2018/07/23 11:00 CWJT 231100Z AUTO 25001KT 20/19 RMK AO1 SLP191 T02000191 53008
CWTA - Mc Tavish (aut), Quebec, Canada
Distance de la station: S 77km
Mise à jour: 23/07/2018 07:00

 Vents de SE
Vent: SE 4 km/h
Température: 23°C
Point de rosée: 20°C
Humidité: 83%
2018/07/23 11:00 CWTA 231100Z AUTO 14002KT 23/20 RMK AO1 SLP192 T02320199 53008
 
CYHU - Saint Hubert Arp, Quebec, Canada
Distance de la station: SSE 77km
Mise à jour: 23/07/2018 07:00
clair
clair
 Vents de E
Vent: E 11 km/h
Température: 23°C
Point de rosée: 20°C
Humidité: 83%
Baromètre: 1019.3 hPa
Nuages: clair
Visibilité: 14 km
2018/07/23 11:00 CYHU 231100Z AUTO 10006KT 9SM CLR 23/20 A3010 RMK SLP193 DENSITY ALT 800FT
CYUL - Montreal/Dorval, Quebec, Canada
Distance de la station: S 80km
Mise à jour: 23/07/2018 07:00
nuageux
nuageux
 Vents de E
Vent: E 13 km/h
Température: 23°C
Point de rosée: 20°C
Humidité: 83%
Baromètre: 1019 hPa
Nuages: nuageux
Visibilité: 48 km
Détail des nuages: Few Clouds 2134 m
Few Clouds 6706 m
nuageux 7620 m
2018/07/23 11:00 CYUL 231100Z 08007KT 30SM FEW070 FEW220 BKN250 23/20 A3009 RMK AC1CC1CI6 CC TR SLP190 DENSITY ALT 1000FT
 
CWNQ - Nicolet (autob), Quebec, Canada
Distance de la station: E 81km
Mise à jour: 23/07/2018 07:00

 Vents de ENE
Vent: ENE 11 km/h
Température: 19°C
Point de rosée: 19°C
Humidité: 100%
2018/07/23 11:00 CWNQ 231100Z AUTO 06006KT 19/19 RMK AO1 SLP203 T01890187 53006
CWVQ - Ste Anne De Bell, Quebec, Canada
Distance de la station: S 87km
Mise à jour: 23/07/2018 07:00

 Vents de E
Vent: E 7 km/h
Température: 23°C
Point de rosée: 20°C
Humidité: 83%
2018/07/23 11:00 CWVQ 231100Z AUTO 08004KT 23/20 RMK AO1 SLP188 T02310203 53009
 
CWTY - Trois Rivieres, Quebec, Canada
Distance de la station: ENE 93km
Mise à jour: 23/07/2018 07:00

 Vents de ENE
Vent: ENE 17 km/h
Température: 20°C
Point de rosée: 19°C
Humidité: 94%
2018/07/23 11:00 CWTY 231100Z AUTO 07009KT 20/19 RMK AO1 SLP203 T02040192 53007
CXSH - Shawinigan, Quebec, Canada
Distance de la station: ENE 97km
Mise à jour: 23/07/2018 07:00

 Vents de ENE
Vent: ENE 7 km/h
Température: 19°C
Point de rosée: 18°C
Humidité: 94%
2018/07/23 11:00 CXSH 231100Z AUTO 06004KT 19/18 RMK AO1 SLP210 T01860181 53007
 
CWIZ - L'acadie, Quebec, Canada
Distance de la station: SSE 104km
Mise à jour: 23/07/2018 07:00

 Vents de SE
Vent: SE 11 km/h
Température: 23°C
Point de rosée: 20°C
Humidité: 83%
2018/07/23 11:00 CWIZ 231100Z AUTO 13006KT 23/20 RMK AO1 T02310204
CWIT - St Clothilde (a, Quebec, Canada
Distance de la station: S 113km
Mise à jour: 23/07/2018 07:00

 Vents de SE
Vent: SE 9 km/h
Température: 23°C
Point de rosée: 21°C
Humidité: 89%
2018/07/23 11:00 CWIT 231100Z AUTO 13005KT 23/21 RMK AO1 SLP185 T02270206 53009
 
CMGB - Granby, Quebec, Canada
Distance de la station: SE 116km
Mise à jour: 23/07/2018 07:30

 Vents de calm
Vent: calme
Température: 24°C
Point de rosée: 22°C
Humidité: 89%
2018/07/23 11:30 CMGB 231130Z AUTO 00000KT 24/22 RMK AO1 SLP195 T02350217 53009
CWBZ - St Anicet, Quebec, Canada
Distance de la station: SSO 127km
Mise à jour: 23/07/2018 07:00

 Vents de E
Vent: E 6 km/h
Température: 21°C
Point de rosée: 20°C
Humidité: 94%
2018/07/23 11:00 CWBZ 231100Z AUTO 08003KT 21/20 RMK AO1 SLP178 T02130199 53014
 
CWHQ - Deschambaults, Quebec, Canada
Distance de la station: ENE 144km
Mise à jour: 15/07/2018 04:00
PAS à jour

 Vents de calm
Vent: calme
Température: 16°C
Point de rosée: 16°C
Humidité: 100%
2018/07/15 08:00 CWHQ 150800Z AUTO 00000KT 16/16 RMK AO1 T01620162
CWFQ - Frelighsburg, Quebec, Canada
Distance de la station: SSE 145km
Mise à jour: 23/07/2018 07:00

 Vents de SE
Vent: SE 7 km/h
Température: 22°C
Point de rosée: 20°C
Humidité: 88%
2018/07/23 11:00 CWFQ 231100Z AUTO 14004KT 22/20 RMK AO1 2012 SLP197 T02190202 50003
 
KFSO - Highgate, Vermont, USA
Distance de la station: SSE 147km
Mise à jour: 23/07/2018 07:15
clair
clair
 Vents de SSE
Vent: SSE 9 km/h
Température: 25°C
Point de rosée: 21°C
Humidité: 79%
Baromètre: 1019.3 hPa
Nuages: clair
Visibilité: 16 km
2018/07/23 11:15 KFSO 231115Z AUTO 15005KT 10SM CLR 25/21 A3010 RMK AO2 T02480210
CWDQ - La Tuque, Quebec, Canada
Distance de la station: NNE 154km
Mise à jour: 23/07/2018 07:00

 Vents de SSO
Vent: SSO 4 km/h
Température: 20°C
Point de rosée: 18°C
Humidité: 88%
2018/07/23 11:00 CWDQ 231100Z AUTO 20002KT 20/18 RMK AO1 SLP220 T01970182 53010